Time,TemperatureF,DewpointF,PressureIn,WindDirection,WindDirectionDegrees,WindSpeedMPH,WindSpeedGustMPH,Humidity,HourlyPrecipIn,Conditions,Clouds,dailyrainin,SolarRadiationWatts/m^2,SoftwareType,DateUTC
2013-04-08 00:00:00,44.2,39.9,30.05,SW,225,2.0,11.0,85,0.00,,,0.00,0016,Weather View 32 v70,2013-04-08 04:00:00,
2013-04-08 00:05:00,44.3,40.1,30.04,SSW,203,1.0,11.0,85,0.00,,,0.00,0000,Weather View 32 v70,2013-04-08 04:05:00,
2013-04-08 00:15:00,44.5,40.3,30.05,SW,225,0.0,11.0,85,0.00,,,0.00,0000,Weather View 32 v70,2013-04-08 04:15:00,
2013-04-08 00:22:00,44.6,40.4,30.05,SW,225,3.0,11.0,85,0.00,,,0.00,0000,Weather View 32 v70,2013-04-08 04:22:00,
2013-04-08 00:30:00,44.7,40.5,30.05,WSW,248,5.0,11.0,85,0.00,,,0.00,0000,Weather View 32 v70,2013-04-08 04:30:00,
2013-04-08 00:35:00,44.7,40.5,30.05,SW,225,2.0,11.0,85,0.00,,,0.00,0000,Weather View 32 v70,2013-04-08 04:35:00,
2013-04-08 00:45:00,44.6,40.4,30.04,SW,225,5.0,14.0,85,0.00,,,0.00,0000,Weather View 32 v70,2013-04-08 04:45:00,
2013-04-08 00:50:00,44.9,40.6,30.04,West,270,0.0,14.0,85,0.00,,,0.00,0000,Weather View 32 v70,2013-04-08 04:50:00,
2013-04-08 00:55:00,44.7,40.5,30.04,SW,225,1.0,14.0,85,0.00,,,0.00,0000,Weather View 32 v70,2013-04-08 04:55:00,
2013-04-08 01:00:00,44.6,40.4,30.04,West,270,2.0,14.0,85,0.00,,,0.00,0000,Weather View 32 v70,2013-04-08 05:00:00,
2013-04-08 01:05:00,44.6,40.4,30.04,West,270,0.0,14.0,85,0.00,,,0.00,0008,Weather View 32 v70,2013-04-08 05:05:00,
2013-04-08 01:15:00,44.7,40.8,30.04,SW,225,2.0,14.0,86,0.00,,,0.00,0000,Weather View 32 v70,2013-04-08 05:15:00,
2013-04-08 01:23:00,44.6,40.7,30.04,West,270,0.0,14.0,86,0.00,,,0.00,0000,Weather View 32 v70,2013-04-08 05:23:00,
2013-04-08 01:30:00,44.5,40.3,30.03,WSW,248,0.0,14.0,85,0.00,,,0.00,0000,Weather View 32 v70,2013-04-08 05:30:00,
2013-04-08 01:35:00,44.5,40.6,30.03,South,180,0.0,14.0,86,0.00,,,0.00,0000,Weather View 32 v70,2013-04-08 05:35:00,
2013-04-08 01:45:00,44.5,40.6,30.02,WSW,248,1.0,8.0,86,0.00,,,0.00,0000,Weather View 32 v70,2013-04-08 05:45:00,
2013-04-08 01:50:00,44.6,40.7,30.02,SSW,203,3.0,9.0,86,0.00,,,0.00,0008,Weather View 32 v70,2013-04-08 05:50:00,
2013-04-08 02:00:00,44.5,40.6,30.02,WSW,248,0.0,9.0,86,0.00,,,0.00,0000,Weather View 32 v70,2013-04-08 06:00:00,
2013-04-08 02:05:00,44.4,40.5,30.02,SW,225,2.0,9.0,86,0.00,,,0.00,0000,Weather View 32 v70,2013-04-08 06:05:00,
2013-04-08 02:15:00,44.4,40.8,30.02,WSW,248,0.0,9.0,87,0.00,,,0.00,0000,Weather View 32 v70,2013-04-08 06:15:00,
2013-04-08 02:20:00,44.4,40.8,30.01,ESE,113,4.0,9.0,87,0.00,,,0.00,0008,Weather View 32 v70,2013-04-08 06:20:00,
2013-04-08 02:25:00,44.3,40.7,30.01,WSW,248,0.0,9.0,87,0.00,,,0.00,0000,Weather View 32 v70,2013-04-08 06:25:00,
2013-04-08 02:30:00,44.3,40.7,30.01,WSW,248,0.0,9.0,87,0.00,,,0.00,0000,Weather View 32 v70,2013-04-08 06:30:00,
2013-04-08 02:40:00,44.3,40.7,30.00,West,270,0.0,9.0,87,0.00,,,0.00,0000,Weather View 32 v70,2013-04-08 06:40:00,
2013-04-08 02:45:00,44.1,40.4,30.00,West,270,0.0,9.0,87,0.00,,,0.00,0000,Weather View 32 v70,2013-04-08 06:45:00,
2013-04-08 02:50:00,44.0,40.3,30.00,WNW,293,0.0,6.0,87,0.00,,,0.00,0000,Weather View 32 v70,2013-04-08 06:50:00,
2013-04-08 03:00:00,43.8,40.2,29.99,SW,225,0.0,6.0,87,0.00,,,0.00,0000,Weather View 32 v70,2013-04-08 07:00:00,
2013-04-08 03:05:00,43.6,40.0,29.99,WSW,248,0.0,6.0,87,0.00,,,0.00,0016,Weather View 32 v70,2013-04-08 07:05:00,
2013-04-08 03:15:00,43.5,39.9,29.99,NW,315,1.0,6.0,87,0.00,,,0.00,0000,Weather View 32 v70,2013-04-08 07:15:00,
2013-04-08 03:24:00,43.4,39.8,29.99,West,270,0.0,6.0,87,0.00,,,0.00,0008,Weather View 32 v70,2013-04-08 07:24:00,
2013-04-08 03:30:00,43.2,39.6,29.99,WSW,248,0.0,6.0,87,0.00,,,0.00,0008,Weather View 32 v70,2013-04-08 07:30:00,
2013-04-08 03:35:00,43.1,39.4,29.99,SW,225,0.0,6.0,87,0.00,,,0.00,0000,Weather View 32 v70,2013-04-08 07:35:00,
2013-04-08 03:45:00,42.9,39.3,29.98,NW,315,0.0,6.0,87,0.00,,,0.00,0000,Weather View 32 v70,2013-04-08 07:45:00,
2013-04-08 03:50:00,42.8,39.2,29.98,WNW,293,0.0,4.0,87,0.00,,,0.00,0000,Weather View 32 v70,2013-04-08 07:50:00,
2013-04-08 04:00:00,42.6,39.0,29.98,West,270,0.0,3.0,87,0.00,,,0.00,0000,Weather View 32 v70,2013-04-08 08:00:00,
2013-04-08 04:05:00,42.6,39.0,29.98,WSW,248,0.0,3.0,87,0.00,,,0.00,0008,Weather View 32 v70,2013-04-08 08:05:00,
2013-04-08 04:15:00,42.6,39.0,29.98,SW,225,0.0,3.0,87,0.00,,,0.00,0000,Weather View 32 v70,2013-04-08 08:15:00,
2013-04-08 04:20:00,42.8,39.2,29.98,WNW,293,0.0,0.0,87,0.00,,,0.00,0000,Weather View 32 v70,2013-04-08 08:20:00,
2013-04-08 04:25:00,42.8,39.2,29.98,WNW,293,0.0,0.0,87,0.00,,,0.00,0000,Weather View 32 v70,2013-04-08 08:25:00,
2013-04-08 04:30:00,43.1,39.7,29.98,SW,225,0.0,0.0,88,0.00,,,0.00,0000,Weather View 32 v70,2013-04-08 08:30:00,
2013-04-08 04:40:00,43.3,40.0,29.98,WNW,293,0.0,3.0,88,0.00,,,0.00,0000,Weather View 32 v70,2013-04-08 08:40:00,
2013-04-08 04:50:00,43.3,39.7,29.98,WSW,248,0.0,3.0,87,0.00,,,0.00,0000,Weather View 32 v70,2013-04-08 08:50:00,
2013-04-08 04:55:00,43.4,39.8,29.98,WSW,248,0.0,3.0,87,0.00,,,0.00,0000,Weather View 32 v70,2013-04-08 08:55:00,
2013-04-08 05:00:00,43.4,39.8,29.97,WSW,248,0.0,3.0,87,0.00,,,0.00,0000,Weather View 32 v70,2013-04-08 09:00:00,
2013-04-08 05:05:00,43.2,39.6,29.97,WSW,248,0.0,3.0,87,0.00,,,0.00,0000,Weather View 32 v70,2013-04-08 09:05:00,
2013-04-08 05:15:00,43.2,39.6,29.97,West,270,0.0,3.0,87,0.00,,,0.00,0000,Weather View 32 v70,2013-04-08 09:15:00,
2013-04-08 05:20:00,43.2,39.9,29.97,WNW,293,0.0,3.0,88,0.00,,,0.00,0000,Weather View 32 v70,2013-04-08 09:20:00,
2013-04-08 05:25:00,43.2,39.6,29.97,WSW,248,0.0,3.0,87,0.00,,,0.00,0000,Weather View 32 v70,2013-04-08 09:25:00,
2013-04-08 05:35:00,43.1,39.4,29.97,WSW,248,0.0,2.0,87,0.00,,,0.00,0000,Weather View 32 v70,2013-04-08 09:35:00,
2013-04-08 05:40:00,42.9,39.6,29.97,WSW,248,0.0,2.0,88,0.00,,,0.00,0000,Weather View 32 v70,2013-04-08 09:40:00,
2013-04-08 05:50:00,42.9,39.6,29.98,WSW,248,0.0,2.0,88,0.00,,,0.00,0000,Weather View 32 v70,2013-04-08 09:50:00,
2013-04-08 06:00:00,42.9,39.6,29.98,West,270,0.0,2.0,88,0.00,,,0.00,0000,Weather View 32 v70,2013-04-08 10:00:00,
2013-04-08 06:05:00,43.1,39.7,29.98,West,270,0.0,2.0,88,0.00,,,0.00,0008,Weather View 32 v70,2013-04-08 10:05:00,
2013-04-08 06:15:00,43.3,40.0,29.99,West,270,0.0,2.0,88,0.00,,,0.00,0000,Weather View 32 v70,2013-04-08 10:15:00,
2013-04-08 06:20:00,43.4,40.1,29.99,WNW,293,0.0,2.0,88,0.00,,,0.00,0000,Weather View 32 v70,2013-04-08 10:20:00,
2013-04-08 06:26:00,43.5,40.2,29.99,West,270,0.0,2.0,88,0.00,,,0.00,0000,Weather View 32 v70,2013-04-08 10:26:00,
2013-04-08 06:35:00,43.4,39.8,29.99,West,270,0.0,2.0,87,0.00,,,0.00,0000,Weather View 32 v70,2013-04-08 10:35:00,
2013-04-08 06:40:00,43.3,39.7,29.99,West,270,0.0,2.0,87,0.00,,,0.00,0008,Weather View 32 v70,2013-04-08 10:40:00,
2013-04-08 06:50:00,43.3,39.7,29.99,WNW,293,0.0,2.0,87,0.00,,,0.00,0008,Weather View 32 v70,2013-04-08 10:50:00,
2013-04-08 06:55:00,43.2,39.6,29.99,WNW,293,0.0,2.0,87,0.00,,,0.00,0032,Weather View 32 v70,2013-04-08 10:55:00,
2013-04-08 07:05:00,43.2,39.6,30.00,WNW,293,0.0,2.0,87,0.00,,,0.00,0040,Weather View 32 v70,2013-04-08 11:05:00,
2013-04-08 07:15:00,43.3,39.7,30.00,West,270,0.0,2.0,87,0.00,,,0.00,0048,Weather View 32 v70,2013-04-08 11:15:00,
2013-04-08 07:25:00,43.8,40.2,30.01,WSW,248,0.0,2.0,87,0.00,,,0.00,0096,Weather View 32 v70,2013-04-08 11:25:00,
2013-04-08 07:35:00,44.2,40.8,30.01,WNW,293,0.0,2.0,88,0.00,,,0.00,0048,Weather View 32 v70,2013-04-08 11:35:00,
2013-04-08 07:45:00,44.6,41.0,30.01,WSW,248,0.0,0.0,87,0.00,,,0.00,0136,Weather View 32 v70,2013-04-08 11:45:00,
2013-04-08 07:55:00,45.3,41.7,30.02,West,270,2.0,6.0,87,0.00,,,0.00,0104,Weather View 32 v70,2013-04-08 11:55:00,
2013-04-08 08:00:00,45.3,41.7,30.02,West,270,0.0,9.0,87,0.00,,,0.00,0040,Weather View 32 v70,2013-04-08 12:00:00,
2013-04-08 08:05:00,45.5,41.9,30.02,West,270,0.0,9.0,87,0.00,,,0.00,0184,Weather View 32 v70,2013-04-08 12:05:00,
2013-04-08 08:15:00,47.2,43.2,30.02,West,270,0.0,9.0,86,0.00,,,0.00,0272,Weather View 32 v70,2013-04-08 12:15:00,
2013-04-08 08:20:00,47.8,43.5,30.02,WNW,293,0.0,9.0,85,0.00,,,0.00,0272,Weather View 32 v70,2013-04-08 12:20:00,
2013-04-08 08:25:00,48.5,43.8,30.02,WNW,293,0.0,9.0,84,0.00,,,0.00,0312,Weather View 32 v70,2013-04-08 12:25:00,
2013-04-08 08:30:00,48.9,43.3,30.02,West,270,0.0,9.0,81,0.00,,,0.00,0296,Weather View 32 v70,2013-04-08 12:30:00,
2013-04-08 08:40:00,50.3,43.6,30.02,West,270,2.0,9.0,78,0.00,,,0.00,0296,Weather View 32 v70,2013-04-08 12:40:00,
2013-04-08 08:45:00,50.9,43.6,30.02,NNW,338,0.0,9.0,76,0.00,,,0.00,0344,Weather View 32 v70,2013-04-08 12:45:00,
2013-04-08 08:50:00,51.4,43.3,30.02,NW,315,0.0,9.0,74,0.00,,,0.00,0400,Weather View 32 v70,2013-04-08 12:50:00,
2013-04-08 09:00:00,52.8,42.9,30.02,NW,315,0.0,7.0,69,0.00,,,0.00,0376,Weather View 32 v70,2013-04-08 13:00:00,
2013-04-08 09:05:00,53.3,42.6,30.02,NW,315,0.0,7.0,67,0.00,,,0.00,0320,Weather View 32 v70,2013-04-08 13:05:00,
2013-04-08 09:15:00,53.9,41.1,30.02,NW,315,0.0,7.0,62,0.00,,,0.00,0392,Weather View 32 v70,2013-04-08 13:15:00,
2013-04-08 09:20:00,54.4,40.8,30.02,NW,315,0.0,7.0,60,0.00,,,0.00,0512,Weather View 32 v70,2013-04-08 13:20:00,
2013-04-08 09:25:00,55.3,40.8,30.02,NW,315,0.0,7.0,58,0.00,,,0.00,0512,Weather View 32 v70,2013-04-08 13:25:00,
2013-04-08 09:35:00,56.3,40.8,30.02,NNE,23,3.0,7.0,56,0.00,,,0.00,0408,Weather View 32 v70,2013-04-08 13:35:00,
2013-04-08 09:45:00,56.7,39.7,30.02,NNW,338,0.0,7.0,53,0.00,,,0.00,0432,Weather View 32 v70,2013-04-08 13:45:00,
2013-04-08 09:55:00,56.1,39.2,30.03,NNW,338,4.0,9.0,53,0.00,,,0.00,0392,Weather View 32 v70,2013-04-08 13:55:00,
2013-04-08 10:00:00,56.3,39.4,30.03,NNW,338,1.0,9.0,53,0.00,,,0.00,0472,Weather View 32 v70,2013-04-08 14:00:00,
2013-04-08 10:10:00,57.6,39.0,30.03,NNW,338,0.0,10.0,50,0.00,,,0.00,0480,Weather View 32 v70,2013-04-08 14:10:00,
2013-04-08 10:15:00,58.4,41.7,30.03,WNW,293,1.0,10.0,54,0.00,,,0.00,0616,Weather View 32 v70,2013-04-08 14:15:00,
2013-04-08 10:25:00,58.1,39.5,30.03,WNW,293,0.0,10.0,50,0.00,,,0.00,0496,Weather View 32 v70,2013-04-08 14:25:00,
2013-04-08 10:35:00,59.0,38.8,30.04,WNW,293,6.0,11.0,47,0.00,,,0.00,0320,Weather View 32 v70,2013-04-08 14:35:00,
2013-04-08 10:40:00,59.0,39.3,30.03,WSW,248,4.0,11.0,48,0.00,,,0.00,0664,Weather View 32 v70,2013-04-08 14:40:00,
2013-04-08 10:45:00,59.1,38.9,30.04,WNW,293,0.0,11.0,47,0.00,,,0.00,0520,Weather View 32 v70,2013-04-08 14:45:00,
2013-04-08 10:50:00,59.1,37.2,30.04,WSW,248,7.0,11.0,44,0.00,,,0.00,0664,Weather View 32 v70,2013-04-08 14:50:00,
2013-04-08 11:00:00,59.8,38.4,30.04,West,270,6.0,11.0,45,0.00,,,0.00,0664,Weather View 32 v70,2013-04-08 15:00:00,
2013-04-08 11:10:00,60.5,37.8,30.04,WNW,293,0.0,11.0,43,0.00,,,0.00,0656,Weather View 32 v70,2013-04-08 15:10:00,
2013-04-08 11:20:00,61.5,38.1,30.04,WNW,293,4.0,11.0,42,0.00,,,0.00,0704,Weather View 32 v70,2013-04-08 15:20:00,
2013-04-08 11:28:00,61.7,37.1,30.04,NW,315,1.0,11.0,40,0.00,,,0.00,0688,Weather View 32 v70,2013-04-08 15:28:00,
2013-04-08 11:35:00,62.2,37.5,30.04,West,270,3.0,10.0,40,0.00,,,0.00,0728,Weather View 32 v70,2013-04-08 15:35:00,
2013-04-08 11:40:00,62.3,37.0,30.04,West,270,4.0,10.0,39,0.00,,,0.00,0712,Weather View 32 v70,2013-04-08 15:40:00,
2013-04-08 11:50:00,62.4,36.4,30.04,WNW,293,0.0,10.0,38,0.00,,,0.00,0752,Weather View 32 v70,2013-04-08 15:50:00,
2013-04-08 11:55:00,63.0,36.2,30.03,NNW,338,0.0,10.0,37,0.00,,,0.00,0752,Weather View 32 v70,2013-04-08 15:55:00,
2013-04-08 12:05:00,64.1,36.5,30.03,NW,315,1.0,10.0,36,0.00,,,0.00,0736,Weather View 32 v70,2013-04-08 16:05:00,
2013-04-08 12:15:00,64.5,36.2,30.03,North,0,5.0,10.0,35,0.00,,,0.00,0744,Weather View 32 v70,2013-04-08 16:15:00,
2013-04-08 12:20:00,65.2,36.8,30.03,South,180,0.0,10.0,35,0.00,,,0.00,0752,Weather View 32 v70,2013-04-08 16:20:00,
2013-04-08 12:25:00,65.6,36.4,30.03,WNW,293,0.0,10.0,34,0.00,,,0.00,0752,Weather View 32 v70,2013-04-08 16:25:00,
2013-04-08 12:30:00,66.5,35.6,30.03,SSW,203,3.0,10.0,32,0.00,,,0.00,0728,Weather View 32 v70,2013-04-08 16:30:00,
2013-04-08 12:40:00,66.0,35.2,30.03,West,270,3.0,10.0,32,0.00,,,0.00,0744,Weather View 32 v70,2013-04-08 16:40:00,
2013-04-08 12:45:00,65.7,34.9,30.03,NNE,23,0.0,9.0,32,0.00,,,0.00,0752,Weather View 32 v70,2013-04-08 16:45:00,
2013-04-08 12:50:00,66.1,36.1,30.03,West,270,0.0,9.0,33,0.00,,,0.00,0768,Weather View 32 v70,2013-04-08 16:50:00,
2013-04-08 12:55:00,66.8,36.7,30.02,NW,315,1.0,9.0,33,0.00,,,0.00,0752,Weather View 32 v70,2013-04-08 16:55:00,
2013-04-08 13:00:00,66.9,36.0,30.02,West,270,3.0,10.0,32,0.00,,,0.00,0736,Weather View 32 v70,2013-04-08 17:00:00,
2013-04-08 13:05:00,67.2,34.7,30.03,WNW,293,1.0,10.0,30,0.00,,,0.00,0768,Weather View 32 v70,2013-04-08 17:05:00,
2013-04-08 13:15:00,66.6,33.2,30.03,NNW,338,8.0,10.0,29,0.00,,,0.00,0752,Weather View 32 v70,2013-04-08 17:15:00,
2013-04-08 13:25:00,66.8,37.5,30.03,SW,225,6.0,10.0,34,0.00,,,0.00,0744,Weather View 32 v70,2013-04-08 17:25:00,
2013-04-08 13:30:00,65.9,38.1,30.03,NNW,338,3.0,10.0,36,0.00,,,0.00,0752,Weather View 32 v70,2013-04-08 17:30:00,
2013-04-08 13:40:00,65.7,38.6,30.02,SW,225,3.0,10.0,37,0.00,,,0.00,0728,Weather View 32 v70,2013-04-08 17:40:00,
2013-04-08 13:45:00,65.3,39.0,30.02,South,180,3.0,10.0,38,0.00,,,0.00,0728,Weather View 32 v70,2013-04-08 17:45:00,
2013-04-08 13:50:00,65.8,38.7,30.02,SW,225,6.0,10.0,37,0.00,,,0.00,0696,Weather View 32 v70,2013-04-08 17:50:00,
2013-04-08 13:55:00,65.6,38.5,30.02,SSW,203,2.0,10.0,37,0.00,,,0.00,0720,Weather View 32 v70,2013-04-08 17:55:00,
2013-04-08 14:00:00,65.6,38.5,30.02,WSW,248,6.0,10.0,37,0.00,,,0.00,0712,Weather View 32 v70,2013-04-08 18:00:00,
2013-04-08 14:10:00,64.7,39.1,30.02,WSW,248,4.0,11.0,39,0.00,,,0.00,0688,Weather View 32 v70,2013-04-08 18:10:00,
2013-04-08 14:15:00,65.2,39.6,30.02,North,0,0.0,11.0,39,0.00,,,0.00,0696,Weather View 32 v70,2013-04-08 18:15:00,
2013-04-08 14:25:00,65.0,38.7,30.02,SSW,203,6.0,11.0,38,0.00,,,0.00,0680,Weather View 32 v70,2013-04-08 18:25:00,
2013-04-08 14:30:00,65.2,38.2,30.02,WSW,248,4.0,11.0,37,0.00,,,0.00,0664,Weather View 32 v70,2013-04-08 18:30:00,
2013-04-08 14:40:00,65.2,37.5,30.02,SSW,203,5.0,11.0,36,0.00,,,0.00,0656,Weather View 32 v70,2013-04-08 18:40:00,
2013-04-08 14:50:00,65.7,37.9,30.01,SW,225,2.0,11.0,36,0.00,,,0.00,0632,Weather View 32 v70,2013-04-08 18:50:00,
2013-04-08 15:00:00,66.3,38.5,30.01,SSW,203,4.0,11.0,36,0.00,,,0.00,0592,Weather View 32 v70,2013-04-08 19:00:00,
2013-04-08 15:10:00,65.9,38.1,30.01,SSW,203,4.0,10.0,36,0.00,,,0.00,0576,Weather View 32 v70,2013-04-08 19:10:00,
2013-04-08 15:15:00,66.1,37.6,30.01,South,180,8.0,10.0,35,0.00,,,0.00,0592,Weather View 32 v70,2013-04-08 19:15:00,
2013-04-08 15:20:00,65.9,38.1,30.01,ESE,113,6.0,10.0,36,0.00,,,0.00,0576,Weather View 32 v70,2013-04-08 19:20:00,
2013-04-08 15:25:00,65.9,38.1,30.01,WSW,248,1.0,10.0,36,0.00,,,0.00,0544,Weather View 32 v70,2013-04-08 19:25:00,
2013-04-08 15:31:00,65.0,38.0,30.01,SSW,203,3.0,16.0,37,0.00,,,0.00,0568,Weather View 32 v70,2013-04-08 19:31:00,
2013-04-08 15:40:00,65.1,38.8,30.01,SSW,203,5.0,16.0,38,0.00,,,0.00,0528,Weather View 32 v70,2013-04-08 19:40:00,
2013-04-08 15:45:00,64.7,37.7,30.01,West,270,3.0,16.0,37,0.00,,,0.00,0504,Weather View 32 v70,2013-04-08 19:45:00,
2013-04-08 15:55:00,65.0,38.7,30.01,SW,225,7.0,16.0,38,0.00,,,0.00,0488,Weather View 32 v70,2013-04-08 19:55:00,
2013-04-08 16:00:00,63.9,37.7,30.01,WSW,248,5.0,16.0,38,0.00,,,0.00,0400,Weather View 32 v70,2013-04-08 20:00:00,
2013-04-08 16:10:00,63.3,38.5,30.01,SW,225,4.0,16.0,40,0.00,,,0.00,0384,Weather View 32 v70,2013-04-08 20:10:00,
2013-04-08 16:20:00,63.3,39.1,30.01,SW,225,5.0,16.0,41,0.00,,,0.00,0504,Weather View 32 v70,2013-04-08 20:20:00,
2013-04-08 16:25:00,63.0,38.8,30.02,WNW,293,3.0,16.0,41,0.00,,,0.00,0464,Weather View 32 v70,2013-04-08 20:25:00,
2013-04-08 16:31:00,62.6,38.5,30.01,WSW,248,2.0,16.0,41,0.00,,,0.00,0408,Weather View 32 v70,2013-04-08 20:31:00,
2013-04-08 16:40:00,63.0,38.8,30.01,SW,225,3.0,16.0,41,0.00,,,0.00,0368,Weather View 32 v70,2013-04-08 20:40:00,
2013-04-08 16:50:00,62.4,39.0,30.01,SSW,203,7.0,19.0,42,0.00,,,0.00,0328,Weather View 32 v70,2013-04-08 20:50:00,
2013-04-08 16:55:00,62.1,38.7,30.01,SSE,158,8.0,19.0,42,0.00,,,0.00,0296,Weather View 32 v70,2013-04-08 20:55:00,
2013-04-08 17:05:00,61.3,39.1,30.01,South,180,5.0,19.0,44,0.00,,,0.00,0296,Weather View 32 v70,2013-04-08 21:05:00,
2013-04-08 17:15:00,61.2,39.0,30.01,West,270,0.0,19.0,44,0.00,,,0.00,0232,Weather View 32 v70,2013-04-08 21:15:00,
2013-04-08 17:20:00,60.8,39.3,30.01,SSW,203,0.0,19.0,45,0.00,,,0.00,0216,Weather View 32 v70,2013-04-08 21:20:00,
2013-04-08 17:25:00,60.7,39.2,30.01,SSW,203,3.0,19.0,45,0.00,,,0.00,0136,Weather View 32 v70,2013-04-08 21:25:00,
2013-04-08 17:30:00,60.3,39.4,30.02,SSW,203,3.0,19.0,46,0.00,,,0.00,0192,Weather View 32 v70,2013-04-08 21:30:00,
2013-04-08 17:40:00,59.6,39.8,30.02,SW,225,2.0,19.0,48,0.00,,,0.00,0104,Weather View 32 v70,2013-04-08 21:40:00,
2013-04-08 17:45:00,59.6,39.8,30.02,South,180,3.0,12.0,48,0.00,,,0.00,0072,Weather View 32 v70,2013-04-08 21:45:00,
2013-04-08 17:55:00,58.7,39.5,30.02,SW,225,0.0,12.0,49,0.00,,,0.00,0064,Weather View 32 v70,2013-04-08 21:55:00,
2013-04-08 18:00:00,58.2,39.6,30.02,SSW,203,4.0,12.0,50,0.00,,,0.00,0072,Weather View 32 v70,2013-04-08 22:00:00,
2013-04-08 18:10:00,57.7,40.1,30.03,WNW,293,2.0,12.0,52,0.00,,,0.00,0096,Weather View 32 v70,2013-04-08 22:10:00,
2013-04-08 18:15:00,57.6,40.0,30.03,SSW,203,0.0,11.0,52,0.00,,,0.00,0056,Weather View 32 v70,2013-04-08 22:15:00,
2013-04-08 18:20:00,57.5,39.4,30.02,SSW,203,1.0,11.0,51,0.00,,,0.00,0048,Weather View 32 v70,2013-04-08 22:20:00,
2013-04-08 18:25:00,57.2,39.2,30.03,SSW,203,0.0,11.0,51,0.00,,,0.00,0056,Weather View 32 v70,2013-04-08 22:25:00,
2013-04-08 18:32:00,57.2,39.2,30.03,NW,315,0.0,11.0,51,0.00,,,0.00,0032,Weather View 32 v70,2013-04-08 22:32:00,
2013-04-08 18:45:00,56.7,39.2,30.04,NNW,338,0.0,11.0,52,0.00,,,0.00,0032,Weather View 32 v70,2013-04-08 22:45:00,
2013-04-08 18:50:00,56.3,39.4,30.04,NNW,338,0.0,11.0,53,0.00,,,0.00,0032,Weather View 32 v70,2013-04-08 22:50:00,
2013-04-08 19:00:00,55.5,39.1,30.04,SSW,203,0.0,7.0,54,0.00,,,0.00,0000,Weather View 32 v70,2013-04-08 23:00:00,
2013-04-08 19:05:00,55.2,39.7,30.04,NNW,338,0.0,7.0,56,0.00,,,0.00,0000,Weather View 32 v70,2013-04-08 23:05:00,
2013-04-08 19:15:00,54.0,39.1,30.04,East,90,0.0,7.0,57,0.00,,,0.00,0000,Weather View 32 v70,2013-04-08 23:15:00,
2013-04-08 19:20:00,53.1,39.5,30.04,North,0,0.0,5.0,60,0.00,,,0.00,0000,Weather View 32 v70,2013-04-08 23:20:00,
2013-04-08 19:25:00,52.7,39.6,30.05,North,0,0.0,5.0,61,0.00,,,0.00,0000,Weather View 32 v70,2013-04-08 23:25:00,
2013-04-08 19:30:00,52.1,39.0,30.05,East,90,0.0,2.0,61,0.00,,,0.00,0000,Weather View 32 v70,2013-04-08 23:30:00,
2013-04-08 19:40:00,51.0,38.9,30.05,NNE,23,0.0,2.0,63,0.00,,,0.00,0000,Weather View 32 v70,2013-04-08 23:40:00,
2013-04-08 19:50:00,50.4,39.0,30.06,NNE,23,0.0,2.0,65,0.00,,,0.00,0000,Weather View 32 v70,2013-04-08 23:50:00,
2013-04-08 20:00:00,49.5,38.2,30.06,NE,45,0.0,2.0,65,0.00,,,0.00,0000,Weather View 32 v70,2013-04-09 00:00:00,
2013-04-08 20:05:00,49.1,38.6,30.06,North,0,0.0,1.0,67,0.00,,,0.00,0008,Weather View 32 v70,2013-04-09 00:05:00,
2013-04-08 20:10:00,48.9,38.4,30.06,ENE,68,0.0,0.0,67,0.00,,,0.00,0016,Weather View 32 v70,2013-04-09 00:10:00,
2013-04-08 20:20:00,48.1,38.4,30.06,East,90,1.0,1.0,69,0.00,,,0.00,0000,Weather View 32 v70,2013-04-09 00:20:00,
2013-04-08 20:30:00,47.4,38.1,30.06,East,90,0.0,3.0,70,0.00,,,0.00,0000,Weather View 32 v70,2013-04-09 00:30:00,
2013-04-08 20:40:00,46.8,38.2,30.06,NNE,23,0.0,5.0,72,0.00,,,0.00,0000,Weather View 32 v70,2013-04-09 00:40:00,
2013-04-08 20:45:00,46.5,38.3,30.06,NNE,23,0.0,5.0,73,0.00,,,0.00,0000,Weather View 32 v70,2013-04-09 00:45:00,
2013-04-08 20:55:00,46.3,38.5,30.07,NE,45,0.0,5.0,74,0.00,,,0.00,0000,Weather View 32 v70,2013-04-09 00:55:00,
2013-04-08 21:00:00,46.3,38.5,30.07,NE,45,0.0,5.0,74,0.00,,,0.00,0000,Weather View 32 v70,2013-04-09 01:00:00,
2013-04-08 21:05:00,46.2,38.4,30.07,North,0,0.0,5.0,74,0.00,,,0.00,0000,Weather View 32 v70,2013-04-09 01:05:00,
2013-04-08 21:15:00,46.3,38.8,30.08,WNW,293,0.0,5.0,75,0.00,,,0.00,0008,Weather View 32 v70,2013-04-09 01:15:00,
2013-04-08 21:20:00,46.2,38.4,30.08,NNE,23,0.0,5.0,74,0.00,,,0.00,0008,Weather View 32 v70,2013-04-09 01:20:00,
2013-04-08 21:25:00,46.0,38.1,30.08,ESE,113,0.0,5.0,74,0.00,,,0.00,0000,Weather View 32 v70,2013-04-09 01:25:00,
2013-04-08 21:30:00,45.8,38.3,30.08,North,0,0.0,5.0,75,0.00,,,0.00,0000,Weather View 32 v70,2013-04-09 01:30:00,
2013-04-08 21:40:00,45.5,38.4,30.08,East,90,0.0,6.0,76,0.00,,,0.00,0000,Weather View 32 v70,2013-04-09 01:40:00,
2013-04-08 21:55:00,45.1,38.6,30.08,ENE,68,0.0,6.0,78,0.00,,,0.00,0000,Weather View 32 v70,2013-04-09 01:55:00,
2013-04-08 22:05:00,45.0,38.8,30.08,NNE,23,0.0,9.0,79,0.00,,,0.00,0000,Weather View 32 v70,2013-04-09 02:05:00,
2013-04-08 22:10:00,45.0,38.5,30.08,NNE,23,0.0,9.0,78,0.00,,,0.00,0000,Weather View 32 v70,2013-04-09 02:10:00,
2013-04-08 22:20:00,44.9,38.7,30.08,ESE,113,0.0,9.0,79,0.00,,,0.00,0000,Weather View 32 v70,2013-04-09 02:20:00,
2013-04-08 22:30:00,44.7,38.6,30.09,East,90,0.0,9.0,79,0.00,,,0.00,0000,Weather View 32 v70,2013-04-09 02:30:00,
2013-04-08 22:40:00,44.5,38.7,30.09,SE,135,3.0,9.0,80,0.00,,,0.00,0000,Weather View 32 v70,2013-04-09 02:40:00,
2013-04-08 22:50:00,44.3,38.2,30.09,ESE,113,0.0,9.0,79,0.00,,,0.00,0008,Weather View 32 v70,2013-04-09 02:50:00,
2013-04-08 23:00:00,44.2,38.4,30.09,NNW,338,0.0,9.0,80,0.00,,,0.00,0000,Weather View 32 v70,2013-04-09 03:00:00,
2013-04-08 23:05:00,44.2,38.4,30.10,North,0,0.0,7.0,80,0.00,,,0.00,0000,Weather View 32 v70,2013-04-09 03:05:00,
2013-04-08 23:15:00,44.2,38.4,30.09,SE,135,2.0,7.0,80,0.00,,,0.00,0000,Weather View 32 v70,2013-04-09 03:15:00,
2013-04-08 23:25:00,44.1,38.6,30.09,ENE,68,1.0,7.0,81,0.00,,,0.00,0008,Weather View 32 v70,2013-04-09 03:25:00,
2013-04-08 23:30:00,44.2,38.7,30.08,East,90,0.0,14.0,81,0.00,,,0.00,0008,Weather View 32 v70,2013-04-09 03:30:00,
2013-04-08 23:35:00,44.4,39.2,30.08,ESE,113,1.0,14.0,82,0.00,,,0.00,0008,Weather View 32 v70,2013-04-09 03:35:00,
2013-04-08 23:45:00,44.6,39.5,30.07,ESE,113,5.0,14.0,82,0.00,,,0.00,0000,Weather View 32 v70,2013-04-09 03:45:00,
2013-04-08 23:50:00,44.7,39.6,30.07,East,90,1.0,14.0,82,0.00,,,0.00,0000,Weather View 32 v70,2013-04-09 03:50:00,
2013-04-08 23:55:00,44.9,40.0,30.07,ENE,68,2.0,14.0,83,0.00,,,0.00,0000,Weather View 32 v70,2013-04-09 03:55:00,